createdAt,value
2018-11-11T00:00:06.316Z,849.85
2018-11-11T00:01:06.273Z,849.78
2018-11-11T00:02:06.263Z,849.79
2018-11-11T00:03:06.231Z,849.80
2018-11-11T00:04:06.240Z,849.75
2018-11-11T00:05:06.223Z,849.73
2018-11-11T00:06:06.242Z,849.76
2018-11-11T00:07:06.194Z,849.76
2018-11-11T00:08:06.191Z,849.79
2018-11-11T00:09:06.173Z,849.80
2018-11-11T00:10:06.162Z,849.77
2018-11-11T00:11:06.179Z,849.73
2018-11-11T00:12:06.122Z,849.63
2018-11-11T00:13:06.112Z,849.61
2018-11-11T00:14:06.134Z,849.60
2018-11-11T00:15:06.108Z,849.66
2018-11-11T00:16:06.118Z,849.66
2018-11-11T00:17:06.296Z,849.61
2018-11-11T00:18:06.084Z,849.57
2018-11-11T00:19:06.063Z,849.62
2018-11-11T00:20:06.032Z,849.64
2018-11-11T00:21:06.054Z,849.63
2018-11-11T00:22:06.043Z,849.64
2018-11-11T00:23:06.034Z,849.61
2018-11-11T00:24:06.132Z,849.59
2018-11-11T00:25:05.992Z,849.63
2018-11-11T00:26:06.016Z,849.59
2018-11-11T00:27:06.007Z,849.61
2018-11-11T00:28:06.038Z,849.62
2018-11-11T00:29:05.939Z,849.61
2018-11-11T00:30:05.942Z,849.62
2018-11-11T00:31:05.936Z,849.64
2018-11-11T00:32:05.951Z,849.61
2018-11-11T00:33:05.899Z,849.65
2018-11-11T00:34:05.873Z,849.63
2018-11-11T00:35:05.869Z,849.56
2018-11-11T00:36:05.871Z,849.57
2018-11-11T00:37:05.897Z,849.58
2018-11-11T00:38:05.831Z,849.48
2018-11-11T00:39:05.832Z,849.52
2018-11-11T00:40:05.817Z,849.55
2018-11-11T00:41:05.812Z,849.48
2018-11-11T00:42:05.845Z,849.53
2018-11-11T00:43:05.781Z,849.54
2018-11-11T00:44:05.754Z,849.55
2018-11-11T00:45:05.753Z,849.55
2018-11-11T00:46:05.746Z,849.51
2018-11-11T00:47:05.773Z,849.49
2018-11-11T00:48:05.747Z,849.49
2018-11-11T00:49:05.711Z,849.48
2018-11-11T00:50:05.703Z,849.57
2018-11-11T00:51:05.703Z,849.61
2018-11-11T00:52:05.708Z,849.65
2018-11-11T00:53:05.677Z,849.63
2018-11-11T00:54:05.660Z,849.57
2018-11-11T00:55:05.661Z,849.57
2018-11-11T00:56:05.634Z,849.55
2018-11-11T00:57:05.655Z,849.60
2018-11-11T00:58:05.625Z,849.62
2018-11-11T00:59:05.601Z,849.64
2018-11-11T01:00:05.589Z,849.65
2018-11-11T01:01:05.637Z,849.66
2018-11-11T01:02:05.585Z,849.67
2018-11-11T01:03:05.605Z,849.74
2018-11-11T01:04:05.548Z,849.72
2018-11-11T01:05:05.532Z,849.77
2018-11-11T01:06:05.586Z,849.69
2018-11-11T01:07:05.544Z,849.72
2018-11-11T01:08:05.518Z,849.72
2018-11-11T01:09:05.682Z,849.74
2018-11-11T01:10:05.480Z,849.74
2018-11-11T01:11:05.519Z,849.78
2018-11-11T01:12:05.539Z,849.81
2018-11-11T01:13:05.457Z,849.87
2018-11-11T01:14:05.443Z,849.86
2018-11-11T01:15:05.432Z,849.89
2018-11-11T01:16:05.465Z,849.88
2018-11-11T01:17:05.532Z,849.91
2018-11-11T01:18:05.441Z,849.92
2018-11-11T01:19:05.403Z,849.91
2018-11-11T01:20:05.405Z,849.95
2018-11-11T01:21:05.401Z,849.97
2018-11-11T01:22:05.366Z,849.92
2018-11-11T01:23:05.340Z,849.94
2018-11-11T01:24:05.327Z,849.96
2018-11-11T01:25:05.329Z,849.96
2018-11-11T01:26:05.338Z,850.00
2018-11-11T01:27:05.297Z,850.02
2018-11-11T01:28:05.294Z,849.98
2018-11-11T01:29:05.274Z,849.97
2018-11-11T01:30:05.263Z,850.03
2018-11-11T01:31:05.316Z,850.10
2018-11-11T01:32:05.270Z,850.03
2018-11-11T01:33:05.242Z,850.04
2018-11-11T01:34:05.229Z,850.01
2018-11-11T01:35:05.208Z,850.00
2018-11-11T01:36:05.252Z,850.05
2018-11-11T01:37:05.228Z,850.09
2018-11-11T01:38:05.231Z,850.08
2018-11-11T01:39:05.186Z,850.06
2018-11-11T01:40:05.171Z,850.04
2018-11-11T01:41:05.136Z,849.98
2018-11-11T01:42:05.128Z,850.02
2018-11-11T01:43:05.185Z,850.06
2018-11-11T01:44:05.123Z,850.01
2018-11-11T01:45:05.113Z,850.03
2018-11-11T01:46:05.120Z,850.03
2018-11-11T01:47:05.090Z,850.01
2018-11-11T01:48:05.111Z,850.01
2018-11-11T01:49:05.079Z,850.05
2018-11-11T01:50:05.121Z,850.05
2018-11-11T01:51:05.038Z,850.04
2018-11-11T01:52:05.028Z,850.04
2018-11-11T01:53:05.042Z,850.07
2018-11-11T01:54:05.024Z,850.04
2018-11-11T01:55:05.045Z,850.10
2018-11-11T01:56:05.024Z,850.10
2018-11-11T01:57:04.980Z,850.16
2018-11-11T01:58:05.014Z,850.15
2018-11-11T01:59:04.981Z,850.17
2018-11-11T02:00:04.979Z,850.16
2018-11-11T02:01:04.950Z,850.22
2018-11-11T02:02:04.952Z,850.19
2018-11-11T02:03:04.918Z,850.21
2018-11-11T02:04:04.922Z,850.27
2018-11-11T02:05:04.927Z,850.29
2018-11-11T02:06:04.898Z,850.34
2018-11-11T02:07:04.872Z,850.34
2018-11-11T02:08:04.882Z,850.30
2018-11-11T02:09:04.869Z,850.38
2018-11-11T02:10:04.874Z,850.36
2018-11-11T02:11:04.846Z,850.41
2018-11-11T02:12:04.808Z,850.47
2018-11-11T02:13:04.837Z,850.47
2018-11-11T02:14:04.789Z,850.46
2018-11-11T02:15:04.785Z,850.49
2018-11-11T02:16:04.769Z,850.44
2018-11-11T02:17:04.776Z,850.52
2018-11-11T02:18:04.775Z,850.48
2018-11-11T02:19:04.740Z,850.43
2018-11-11T02:20:04.735Z,850.44
2018-11-11T02:21:04.806Z,850.38
2018-11-11T02:22:04.733Z,850.41
2018-11-11T02:23:04.769Z,850.35
2018-11-11T02:24:04.721Z,850.35
2018-11-11T02:25:04.689Z,850.36
2018-11-11T02:26:04.663Z,850.42
2018-11-11T02:27:04.672Z,850.44
2018-11-11T02:28:04.698Z,850.46
2018-11-11T02:29:04.662Z,850.43
2018-11-11T02:30:05.497Z,850.41
2018-11-11T02:31:04.601Z,850.44
2018-11-11T02:32:04.599Z,850.46
2018-11-11T02:33:04.619Z,850.48
2018-11-11T02:34:04.595Z,850.49
2018-11-11T02:35:04.571Z,850.52
2018-11-11T02:36:04.552Z,850.59
2018-11-11T02:37:04.596Z,850.62
2018-11-11T02:38:04.523Z,850.69
2018-11-11T02:39:04.524Z,850.70
2018-11-11T02:40:04.506Z,850.66
2018-11-11T02:41:04.511Z,850.71
2018-11-11T02:42:04.535Z,850.74
2018-11-11T02:43:04.490Z,850.69
2018-11-11T02:44:04.472Z,850.73
2018-11-11T02:45:04.450Z,850.75
2018-11-11T02:46:04.446Z,850.73
2018-11-11T02:47:04.468Z,850.78
2018-11-11T02:48:04.455Z,850.83
2018-11-11T02:49:04.423Z,850.77
2018-11-11T02:50:04.408Z,850.78
2018-11-11T02:51:04.448Z,850.78
2018-11-11T02:52:04.391Z,850.75
2018-11-11T02:53:04.370Z,850.74
2018-11-11T02:54:04.362Z,850.79
2018-11-11T02:55:04.352Z,850.81
2018-11-11T02:56:04.404Z,850.82
2018-11-11T02:57:04.340Z,850.84
2018-11-11T02:58:04.307Z,850.84
2018-11-11T02:59:04.296Z,850.89
2018-11-11T03:00:04.304Z,850.85
2018-11-11T03:01:04.320Z,850.87
2018-11-11T03:02:04.313Z,850.88
2018-11-11T03:03:04.264Z,850.86
2018-11-11T03:04:04.239Z,850.85
2018-11-11T03:05:04.231Z,850.77
2018-11-11T03:06:04.273Z,850.72
2018-11-11T03:07:04.232Z,850.78
2018-11-11T03:08:04.209Z,850.84
2018-11-11T03:09:04.223Z,850.89
2018-11-11T03:10:04.170Z,850.89
2018-11-11T03:11:04.209Z,850.94
2018-11-11T03:12:04.193Z,850.91
2018-11-11T03:13:04.151Z,850.99
2018-11-11T03:14:04.134Z,850.98
2018-11-11T03:15:04.148Z,851.03
2018-11-11T03:16:04.139Z,851.00
2018-11-11T03:17:04.132Z,851.03
2018-11-11T03:18:04.940Z,851.04
2018-11-11T03:19:04.128Z,851.02
2018-11-11T03:20:04.117Z,851.05
2018-11-11T03:21:04.091Z,851.13
2018-11-11T03:22:04.058Z,851.13
2018-11-11T03:23:04.039Z,851.14
2018-11-11T03:24:04.023Z,851.12
2018-11-11T03:25:04.050Z,851.10
2018-11-11T03:26:04.921Z,851.15
2018-11-11T03:27:05.018Z,851.05
2018-11-11T03:28:04.013Z,851.11
2018-11-11T03:29:04.049Z,851.08
2018-11-11T03:30:03.984Z,851.03
2018-11-11T03:31:03.983Z,851.03
2018-11-11T03:32:03.974Z,851.00
2018-11-11T03:33:04.009Z,850.97
2018-11-11T03:34:03.952Z,850.99
2018-11-11T03:35:03.912Z,851.02
2018-11-11T03:36:03.945Z,851.01
2018-11-11T03:37:03.878Z,850.99
2018-11-11T03:38:03.938Z,850.98
2018-11-11T03:39:03.913Z,851.03
2018-11-11T03:40:03.857Z,851.03
2018-11-11T03:41:03.851Z,851.07
2018-11-11T03:42:03.859Z,851.06
2018-11-11T03:43:03.873Z,851.02
2018-11-11T03:44:03.844Z,851.01
2018-11-11T03:45:03.955Z,850.99
2018-11-11T03:46:03.793Z,850.94
2018-11-11T03:47:04.419Z,850.88
2018-11-11T03:48:03.805Z,850.86
2018-11-11T03:49:03.898Z,850.77
2018-11-11T03:50:03.882Z,850.69
2018-11-11T03:51:03.728Z,850.68
2018-11-11T03:52:03.738Z,850.69
2018-11-11T03:53:03.748Z,850.68
2018-11-11T03:54:03.914Z,850.73
2018-11-11T03:55:03.699Z,850.78
2018-11-11T03:56:03.820Z,850.76
2018-11-11T03:57:03.684Z,850.81
2018-11-11T03:58:03.694Z,850.80
2018-11-11T03:59:04.413Z,850.83
2018-11-11T04:00:03.683Z,850.83
2018-11-11T04:01:03.654Z,850.83
2018-11-11T04:02:03.646Z,850.85
2018-11-11T04:03:03.605Z,850.83
2018-11-11T04:04:03.872Z,850.80
2018-11-11T04:05:03.587Z,850.85
2018-11-11T04:06:03.615Z,850.77
2018-11-11T04:07:03.576Z,850.87
2018-11-11T04:08:03.556Z,850.86
2018-11-11T04:09:03.594Z,850.87
2018-11-11T04:10:03.567Z,850.91
2018-11-11T04:11:03.546Z,850.91
2018-11-11T04:12:03.551Z,850.96
2018-11-11T04:13:03.501Z,850.94
2018-11-11T04:14:03.486Z,850.96
2018-11-11T04:15:03.518Z,850.95
2018-11-11T04:16:03.488Z,850.98
2018-11-11T04:17:03.474Z,850.99
2018-11-11T04:18:03.512Z,851.01
2018-11-11T04:19:03.470Z,851.05
2018-11-11T04:20:03.412Z,851.05
2018-11-11T04:21:03.399Z,851.08
2018-11-11T04:22:03.434Z,851.08
2018-11-11T04:23:03.431Z,851.10
2018-11-11T04:24:03.394Z,851.09
2018-11-11T04:25:03.384Z,851.11
2018-11-11T04:26:03.390Z,851.09
2018-11-11T04:27:03.497Z,851.12
2018-11-11T04:28:03.374Z,851.14
2018-11-11T04:29:03.556Z,851.16
2018-11-11T04:30:03.345Z,851.16
2018-11-11T04:31:03.316Z,851.18
2018-11-11T04:32:03.322Z,851.14
2018-11-11T04:33:03.305Z,851.16
2018-11-11T04:34:03.296Z,851.10
2018-11-11T04:35:03.342Z,851.06
2018-11-11T04:36:03.368Z,851.04
2018-11-11T04:37:03.249Z,851.03
2018-11-11T04:38:03.248Z,851.06
2018-11-11T04:39:03.253Z,851.04
2018-11-11T04:40:03.244Z,851.07
2018-11-11T04:41:03.202Z,851.10
2018-11-11T04:42:03.172Z,851.10
2018-11-11T04:43:03.177Z,851.06
2018-11-11T04:44:03.154Z,851.08
2018-11-11T04:45:03.166Z,851.05
2018-11-11T04:46:03.190Z,851.06
2018-11-11T04:47:03.130Z,851.07
2018-11-11T04:48:03.115Z,851.10
2018-11-11T04:49:03.170Z,851.14
2018-11-11T04:50:03.103Z,851.17
2018-11-11T04:51:03.089Z,851.21
2018-11-11T04:52:03.097Z,851.28
2018-11-11T04:53:03.071Z,851.27
2018-11-11T04:54:03.054Z,851.26
2018-11-11T04:55:03.456Z,851.28
2018-11-11T04:56:03.066Z,851.26
2018-11-11T04:57:03.015Z,851.29
2018-11-11T04:58:03.047Z,851.25
2018-11-11T04:59:03.026Z,851.24
2018-11-11T05:00:02.982Z,851.27
2018-11-11T05:01:02.997Z,851.23
2018-11-11T05:02:03.004Z,851.25
2018-11-11T05:03:03.017Z,851.25
2018-11-11T05:04:02.946Z,851.23
2018-11-11T05:05:02.928Z,851.22
2018-11-11T05:06:02.917Z,851.14
2018-11-11T05:07:02.923Z,851.03
2018-11-11T05:08:02.948Z,851.07
2018-11-11T05:09:02.912Z,851.06
2018-11-11T05:10:02.890Z,850.95
2018-11-11T05:11:02.910Z,850.94
2018-11-11T05:12:02.870Z,850.97
2018-11-11T05:13:02.871Z,850.93
2018-11-11T05:14:24.252Z,850.97
2018-11-11T05:15:03.820Z,851.01
2018-11-11T05:16:02.822Z,850.97
2018-11-11T05:17:02.830Z,851.03
2018-11-11T05:18:02.849Z,851.00
2018-11-11T05:19:02.785Z,851.04
2018-11-11T05:20:02.797Z,851.06
2018-11-11T05:21:02.765Z,851.02
2018-11-11T05:22:02.837Z,851.06
2018-11-11T05:23:02.774Z,851.01
2018-11-11T05:24:02.746Z,851.06
2018-11-11T05:25:02.734Z,851.09
2018-11-11T05:26:03.445Z,851.14
2018-11-11T05:27:02.700Z,851.16
2018-11-11T05:28:02.766Z,851.15
2018-11-11T05:29:02.693Z,851.15
2018-11-11T05:30:02.685Z,851.18
2018-11-11T05:31:02.824Z,851.19
2018-11-11T05:32:02.664Z,851.19
2018-11-11T05:33:02.678Z,851.19
2018-11-11T05:34:02.618Z,851.20
2018-11-11T05:35:02.620Z,851.19
2018-11-11T05:36:02.655Z,851.19
2018-11-11T05:37:02.585Z,851.17
2018-11-11T05:38:02.583Z,851.19
2018-11-11T05:39:02.575Z,851.15
2018-11-11T05:40:02.552Z,851.22
2018-11-11T05:41:02.569Z,851.19
2018-11-11T05:42:02.561Z,851.20
2018-11-11T05:43:02.532Z,851.22
2018-11-11T05:44:02.533Z,851.20
2018-11-11T05:45:02.518Z,851.25
2018-11-11T05:46:02.528Z,851.24
2018-11-11T05:47:02.494Z,851.28
2018-11-11T05:48:02.471Z,851.22
2018-11-11T05:49:02.479Z,851.24
2018-11-11T05:50:02.460Z,851.22
2018-11-11T05:51:02.483Z,851.18
2018-11-11T05:52:02.497Z,851.19
2018-11-11T05:53:02.404Z,851.25
2018-11-11T05:54:02.399Z,851.23
2018-11-11T05:55:02.445Z,851.26
2018-11-11T05:56:02.397Z,851.31
2018-11-11T05:57:02.409Z,851.27
2018-11-11T05:58:02.383Z,851.32
2018-11-11T05:59:02.352Z,851.34
2018-11-11T06:00:02.517Z,851.36
2018-11-11T06:01:02.326Z,851.38
2018-11-11T06:02:02.370Z,851.35
2018-11-11T06:03:02.332Z,851.40
2018-11-11T06:04:02.336Z,851.40
2018-11-11T06:05:02.365Z,851.36
2018-11-11T06:06:02.273Z,851.37
2018-11-11T06:07:02.451Z,851.38
2018-11-11T06:08:04.119Z,851.33
2018-11-11T06:09:02.265Z,851.30
2018-11-11T06:10:02.241Z,851.28
2018-11-11T06:11:02.240Z,851.30
2018-11-11T06:12:02.283Z,851.28
2018-11-11T06:13:02.362Z,851.33
2018-11-11T06:14:02.227Z,851.34
2018-11-11T06:15:02.248Z,851.34
2018-11-11T06:16:02.165Z,851.38
2018-11-11T06:17:02.153Z,851.35
2018-11-11T06:18:02.170Z,851.36
2018-11-11T06:19:02.306Z,851.39
2018-11-11T06:20:02.176Z,851.42
2018-11-11T06:21:02.122Z,851.39
2018-11-11T06:22:02.096Z,851.38
2018-11-11T06:23:02.096Z,851.42
2018-11-11T06:24:02.081Z,851.39
2018-11-11T06:25:02.112Z,851.43
2018-11-11T06:26:02.084Z,851.41
2018-11-11T06:27:02.086Z,851.44
2018-11-11T06:28:02.044Z,851.43
2018-11-11T06:29:02.153Z,851.44
2018-11-11T06:30:02.092Z,851.42
2018-11-11T06:31:02.028Z,851.42
2018-11-11T06:32:02.077Z,851.40
2018-11-11T06:33:02.001Z,851.39
2018-11-11T06:34:02.030Z,851.42
2018-11-11T06:35:01.995Z,851.40
2018-11-11T06:36:01.983Z,851.37
2018-11-11T06:37:01.961Z,851.38
2018-11-11T06:38:02.462Z,851.46
2018-11-11T06:39:01.917Z,851.51
2018-11-11T06:40:01.917Z,851.51
2018-11-11T06:41:01.963Z,851.58
2018-11-11T06:42:01.929Z,851.56
2018-11-11T06:43:01.883Z,851.62
2018-11-11T06:44:01.859Z,851.64
2018-11-11T06:45:01.875Z,851.65
2018-11-11T06:46:01.868Z,851.72
2018-11-11T06:47:02.429Z,851.75
2018-11-11T06:48:01.889Z,851.77
2018-11-11T06:49:01.821Z,851.81
2018-11-11T06:50:02.418Z,851.80
2018-11-11T06:51:01.797Z,851.84
2018-11-11T06:52:01.782Z,851.79
2018-11-11T06:53:01.777Z,851.89
2018-11-11T06:54:01.763Z,851.87
2018-11-11T06:55:01.785Z,851.94
2018-11-11T06:56:01.722Z,851.93
2018-11-11T06:57:01.716Z,851.91
2018-11-11T06:58:01.780Z,851.87
2018-11-11T06:59:01.705Z,851.91
2018-11-11T07:00:01.779Z,851.94
2018-11-11T07:01:01.711Z,851.91
2018-11-11T07:02:01.670Z,851.86
2018-11-11T07:03:01.666Z,851.88
2018-11-11T07:04:01.678Z,851.89
2018-11-11T07:05:01.754Z,851.85
2018-11-11T07:06:01.649Z,851.87
2018-11-11T07:07:02.457Z,851.92
2018-11-11T07:08:01.604Z,851.96
2018-11-11T07:09:01.614Z,851.97
2018-11-11T07:10:01.609Z,852.02
2018-11-11T07:11:01.626Z,851.97
2018-11-11T07:12:01.571Z,852.02
2018-11-11T07:13:01.538Z,852.03
2018-11-11T07:14:01.609Z,852.07
2018-11-11T07:15:01.568Z,852.10
2018-11-11T07:16:01.511Z,852.11
2018-11-11T07:17:01.518Z,852.08
2018-11-11T07:18:01.516Z,852.08
2018-11-11T07:19:01.501Z,852.07
2018-11-11T07:20:01.592Z,852.10
2018-11-11T07:21:01.501Z,852.08
2018-11-11T07:22:01.456Z,852.09
2018-11-11T07:23:01.468Z,852.08
2018-11-11T07:24:01.541Z,852.14
2018-11-11T07:25:01.479Z,852.14
2018-11-11T07:26:01.439Z,852.17
2018-11-11T07:27:01.412Z,852.16
2018-11-11T07:28:01.391Z,852.20
2018-11-11T07:29:01.390Z,852.21
2018-11-11T07:30:01.419Z,852.26
2018-11-11T07:31:01.376Z,852.30
2018-11-11T07:32:02.888Z,852.33
2018-11-11T07:33:01.329Z,852.33
2018-11-11T07:34:01.318Z,852.33
2018-11-11T07:35:01.338Z,852.32
2018-11-11T07:36:01.450Z,852.32
2018-11-11T07:37:01.285Z,852.34
2018-11-11T07:38:01.281Z,852.35
2018-11-11T07:39:01.273Z,852.40
2018-11-11T07:40:01.310Z,852.39
2018-11-11T07:41:01.244Z,852.40
2018-11-11T07:42:01.226Z,852.47
2018-11-11T07:43:01.210Z,852.43
2018-11-11T07:44:01.262Z,852.46
2018-11-11T07:45:01.244Z,852.47
2018-11-11T07:46:01.400Z,852.44
2018-11-11T07:47:01.181Z,852.47
2018-11-11T07:48:01.229Z,852.44
2018-11-11T07:49:01.157Z,852.51
2018-11-11T07:50:01.189Z,852.51
2018-11-11T07:51:01.143Z,852.46
2018-11-11T07:52:01.243Z,852.53
2018-11-11T07:53:01.104Z,852.55
2018-11-11T07:54:01.103Z,852.56
2018-11-11T07:55:01.444Z,852.60
2018-11-11T07:56:01.162Z,852.58
2018-11-11T07:57:01.114Z,852.60
2018-11-11T07:58:01.152Z,852.56
2018-11-11T07:59:01.051Z,852.60
2018-11-11T08:00:01.031Z,852.62
2018-11-11T08:01:01.119Z,852.63
2018-11-11T08:02:01.159Z,852.56
2018-11-11T08:03:01.091Z,852.57
2018-11-11T08:04:01.016Z,852.49
2018-11-11T08:05:02.076Z,852.54
2018-11-11T08:06:00.960Z,852.51
2018-11-11T08:07:01.399Z,852.55
2018-11-11T08:08:01.004Z,852.61
2018-11-11T08:09:01.074Z,852.59
2018-11-11T08:10:00.944Z,852.62
2018-11-11T08:11:00.991Z,852.63
2018-11-11T08:12:00.988Z,852.60
2018-11-11T08:13:00.903Z,852.57
2018-11-11T08:14:00.890Z,852.57
2018-11-11T08:15:00.924Z,852.59
2018-11-11T08:16:01.070Z,852.57
2018-11-11T08:17:01.084Z,852.61
2018-11-11T08:18:01.011Z,852.58
2018-11-11T08:19:01.095Z,852.61
2018-11-11T08:20:00.873Z,852.59
2018-11-11T08:21:00.852Z,852.69
2018-11-11T08:22:00.847Z,852.69
2018-11-11T08:23:00.797Z,852.64
2018-11-11T08:24:00.777Z,852.72
2018-11-11T08:25:00.775Z,852.70
2018-11-11T08:26:00.767Z,852.72
2018-11-11T08:27:00.795Z,852.73
2018-11-11T08:28:00.748Z,852.71
2018-11-11T08:29:00.724Z,852.72
2018-11-11T08:30:00.717Z,852.76
2018-11-11T08:31:00.713Z,852.74
2018-11-11T08:32:00.729Z,852.75
2018-11-11T08:33:00.683Z,852.74
2018-11-11T08:34:00.676Z,852.76
2018-11-11T08:35:01.469Z,852.78
2018-11-11T08:36:00.673Z,852.75
2018-11-11T08:37:00.757Z,852.76
2018-11-11T08:38:01.359Z,852.77
2018-11-11T08:39:00.614Z,852.78
2018-11-11T08:40:00.668Z,852.79
2018-11-11T08:41:00.890Z,852.81
2018-11-11T08:42:00.618Z,852.83
2018-11-11T08:43:00.675Z,852.81
2018-11-11T08:44:00.577Z,852.84
2018-11-11T08:45:00.585Z,852.89
2018-11-11T08:46:00.549Z,852.90
2018-11-11T08:47:01.400Z,852.90
2018-11-11T08:48:00.572Z,852.93
2018-11-11T08:49:00.507Z,852.90
2018-11-11T08:50:00.542Z,852.91
2018-11-11T08:51:00.495Z,852.94
2018-11-11T08:52:00.467Z,852.94
2018-11-11T08:53:00.496Z,852.95
2018-11-11T08:54:00.509Z,852.98
2018-11-11T08:55:00.552Z,852.95
2018-11-11T08:56:00.452Z,852.94
2018-11-11T08:57:00.431Z,852.93
2018-11-11T08:58:00.431Z,852.88
2018-11-11T08:59:00.443Z,852.88
2018-11-11T09:00:00.399Z,852.92
2018-11-11T09:01:00.390Z,852.91
2018-11-11T09:02:00.362Z,852.91
2018-11-11T09:03:00.387Z,852.86
2018-11-11T09:04:00.391Z,852.88
2018-11-11T09:05:00.498Z,852.91
2018-11-11T09:06:00.330Z,852.98
2018-11-11T09:07:00.375Z,853.00
2018-11-11T09:08:00.314Z,852.97
2018-11-11T09:09:00.320Z,852.99
2018-11-11T09:10:00.280Z,852.98
2018-11-11T09:11:00.309Z,852.98
2018-11-11T09:12:00.254Z,852.96
2018-11-11T09:13:00.251Z,852.99
2018-11-11T09:14:24.528Z,852.97
2018-11-11T09:15:01.251Z,852.97
2018-11-11T09:16:14.425Z,853.01
2018-11-11T09:17:08.961Z,852.99
2018-11-11T09:18:00.202Z,853.04
2018-11-11T09:19:00.213Z,853.06
2018-11-11T09:20:00.245Z,853.09
2018-11-11T09:21:01.340Z,853.16
2018-11-11T09:22:00.209Z,853.12
2018-11-11T09:23:00.137Z,853.13
2018-11-11T09:24:00.910Z,853.10
2018-11-11T09:25:00.153Z,853.13
2018-11-11T09:26:00.173Z,853.14
2018-11-11T09:27:00.132Z,853.10
2018-11-11T09:28:00.113Z,853.15
2018-11-11T09:29:00.180Z,853.20
2018-11-11T09:30:00.085Z,853.25
2018-11-11T09:31:00.258Z,853.25
2018-11-11T09:32:00.062Z,853.26
2018-11-11T09:33:00.077Z,853.30
2018-11-11T09:34:00.043Z,853.33
2018-11-11T09:35:00.073Z,853.26
2018-11-11T09:36:00.059Z,853.39
2018-11-11T09:37:00.036Z,853.39
2018-11-11T09:38:00.065Z,853.41
2018-11-11T09:39:00.040Z,853.38
2018-11-11T09:39:59.997Z,853.37
2018-11-11T09:41:00.007Z,853.40
2018-11-11T09:42:00.001Z,853.41
2018-11-11T09:42:59.987Z,853.39
2018-11-11T09:43:59.975Z,853.43
2018-11-11T09:44:59.928Z,853.35
2018-11-11T09:45:59.906Z,853.37
2018-11-11T09:46:59.991Z,853.37
2018-11-11T09:47:59.977Z,853.39
2018-11-11T09:48:59.951Z,853.42
2018-11-11T09:49:59.880Z,853.45
2018-11-11T09:51:00.010Z,853.43
2018-11-11T09:51:59.913Z,853.45
2018-11-11T09:52:59.864Z,853.43
2018-11-11T09:53:59.885Z,853.40
2018-11-11T09:54:59.848Z,853.39
2018-11-11T09:55:59.841Z,853.40
2018-11-11T09:56:59.863Z,853.41
2018-11-11T09:57:59.800Z,853.45
2018-11-11T09:58:59.790Z,853.47
2018-11-11T09:59:59.861Z,853.41
2018-11-11T10:00:59.829Z,853.47
2018-11-11T10:02:00.337Z,853.42
2018-11-11T10:02:59.737Z,853.45
2018-11-11T10:03:59.743Z,853.50
2018-11-11T10:04:59.789Z,853.53
2018-11-11T10:05:59.723Z,853.52
2018-11-11T10:06:59.786Z,853.53
2018-11-11T10:07:59.716Z,853.52
2018-11-11T10:08:59.679Z,853.53
2018-11-11T10:10:00.438Z,853.53
2018-11-11T10:10:59.668Z,853.55
2018-11-11T10:11:59.698Z,853.53
2018-11-11T10:12:59.673Z,853.52
2018-11-11T10:13:59.589Z,853.53
2018-11-11T10:14:59.594Z,853.55
2018-11-11T10:15:59.581Z,853.61
2018-11-11T10:16:59.596Z,853.56
2018-11-11T10:17:59.631Z,853.58
2018-11-11T10:18:59.577Z,853.62
2018-11-11T10:19:59.537Z,853.61
2018-11-11T10:20:59.620Z,853.63
2018-11-11T10:21:59.527Z,853.55
2018-11-11T10:22:59.608Z,853.61
2018-11-11T10:24:00.502Z,853.58
2018-11-11T10:24:59.545Z,853.53
2018-11-11T10:25:59.510Z,853.52
2018-11-11T10:26:59.560Z,853.55
2018-11-11T10:27:59.483Z,853.60
2018-11-11T10:28:59.499Z,853.65
2018-11-11T10:29:59.444Z,853.69
2018-11-11T10:30:59.510Z,853.68
2018-11-11T10:31:59.632Z,853.66
2018-11-11T10:32:59.490Z,853.68
2018-11-11T10:34:00.024Z,853.69
2018-11-11T10:34:59.610Z,853.69
2018-11-11T10:35:59.597Z,853.74
2018-11-11T10:36:59.581Z,853.70
2018-11-11T10:37:59.369Z,853.70
2018-11-11T10:38:59.450Z,853.71
2018-11-11T10:39:59.359Z,853.70
2018-11-11T10:41:00.137Z,853.69
2018-11-11T10:41:59.501Z,853.71
2018-11-11T10:42:59.365Z,853.75
2018-11-11T10:44:00.401Z,853.72
2018-11-11T10:44:59.924Z,853.72
2018-11-11T10:45:59.342Z,853.74
2018-11-11T10:46:59.421Z,853.75
2018-11-11T10:48:01.420Z,853.75
2018-11-11T10:48:59.919Z,853.75
2018-11-11T10:49:59.390Z,853.75
2018-11-11T10:50:59.280Z,853.74
2018-11-11T10:51:59.487Z,853.70
2018-11-11T10:52:59.248Z,853.78
2018-11-11T10:53:59.489Z,853.75
2018-11-11T10:55:00.094Z,853.78
2018-11-11T10:55:59.158Z,853.74
2018-11-11T10:56:59.173Z,853.79
2018-11-11T10:57:59.214Z,853.83
2018-11-11T10:58:59.544Z,853.81
2018-11-11T10:59:59.473Z,853.79
2018-11-11T11:00:59.351Z,853.82
2018-11-11T11:01:59.171Z,853.87
2018-11-11T11:02:59.158Z,853.81
2018-11-11T11:03:59.050Z,853.87
2018-11-11T11:04:59.027Z,853.89
2018-11-11T11:06:00.058Z,853.83
2018-11-11T11:06:59.024Z,853.79
2018-11-11T11:07:59.050Z,853.83
2018-11-11T11:08:59.562Z,853.86
2018-11-11T11:10:00.149Z,853.81
2018-11-11T11:10:59.017Z,853.80
2018-11-11T11:11:59.053Z,853.79
2018-11-11T11:12:58.984Z,853.79
2018-11-11T11:13:59.052Z,853.79
2018-11-11T11:14:58.953Z,853.84
2018-11-11T11:15:58.918Z,853.82
2018-11-11T11:16:58.945Z,853.85
2018-11-11T11:17:59.018Z,853.81
2018-11-11T11:18:58.898Z,853.83
2018-11-11T11:19:58.876Z,853.84
2018-11-11T11:20:58.882Z,853.83
2018-11-11T11:21:58.967Z,853.81
2018-11-11T11:22:58.939Z,853.76
2018-11-11T11:23:59.721Z,853.73
2018-11-11T11:24:58.965Z,853.76
2018-11-11T11:25:58.854Z,853.75
2018-11-11T11:26:59.436Z,853.69
2018-11-11T11:27:58.852Z,853.69
2018-11-11T11:28:58.805Z,853.67
2018-11-11T11:29:58.761Z,853.70
2018-11-11T11:30:58.780Z,853.70
2018-11-11T11:31:58.826Z,853.71
2018-11-11T11:32:58.718Z,853.71
2018-11-11T11:33:58.761Z,853.69
2018-11-11T11:34:58.695Z,853.66
2018-11-11T11:35:58.742Z,853.63
2018-11-11T11:36:58.686Z,853.62
2018-11-11T11:37:58.725Z,853.58
2018-11-11T11:38:58.686Z,853.60
2018-11-11T11:39:58.660Z,853.61
2018-11-11T11:40:58.683Z,853.61
2018-11-11T11:41:58.636Z,853.59
2018-11-11T11:42:58.625Z,853.61
2018-11-11T11:43:58.670Z,853.55
2018-11-11T11:44:58.589Z,853.57
2018-11-11T11:45:58.627Z,853.62
2018-11-11T11:46:58.569Z,853.56
2018-11-11T11:47:58.564Z,853.54
2018-11-11T11:48:58.552Z,853.54
2018-11-11T11:49:58.547Z,853.55
2018-11-11T11:50:59.431Z,853.55
2018-11-11T11:51:58.569Z,853.53
2018-11-11T11:52:58.586Z,853.52
2018-11-11T11:53:58.501Z,853.51
2018-11-11T11:54:58.512Z,853.53
2018-11-11T11:55:58.475Z,853.54
2018-11-11T11:56:58.520Z,853.52
2018-11-11T11:57:58.517Z,853.50
2018-11-11T11:58:58.435Z,853.57
2018-11-11T11:59:58.444Z,853.51
2018-11-11T12:00:58.414Z,853.56
2018-11-11T12:01:59.506Z,853.53
2018-11-11T12:02:58.405Z,853.50
2018-11-11T12:03:58.382Z,853.50
2018-11-11T12:04:58.417Z,853.53
2018-11-11T12:05:58.373Z,853.56
2018-11-11T12:06:58.373Z,853.53
2018-11-11T12:07:58.383Z,853.47
2018-11-11T12:08:58.360Z,853.53
2018-11-11T12:09:58.394Z,853.50
2018-11-11T12:10:58.303Z,853.52
2018-11-11T12:11:58.330Z,853.51
2018-11-11T12:12:58.356Z,853.50
2018-11-11T12:13:58.312Z,853.55
2018-11-11T12:14:58.294Z,853.52
2018-11-11T12:15:58.289Z,853.58
2018-11-11T12:16:58.927Z,853.55
2018-11-11T12:17:58.247Z,853.56
2018-11-11T12:18:58.253Z,853.59
2018-11-11T12:19:58.245Z,853.57
2018-11-11T12:20:58.201Z,853.58
2018-11-11T12:21:58.209Z,853.56
2018-11-11T12:22:58.921Z,853.58
2018-11-11T12:23:58.945Z,853.57
2018-11-11T12:24:58.197Z,853.54
2018-11-11T12:25:58.148Z,853.59
2018-11-11T12:26:58.129Z,853.63
2018-11-11T12:27:58.121Z,853.64